Flughafen Paderborn/Lippstadt

Aus VATSIM Germany
Version vom 15. Mai 2020, 14:13 Uhr von VATSIM Germany (Diskussion | Beiträge) (Die Seite wurde neu angelegt: „{{Baustelle}} {{Flughafen |ICAO=EDLP }} {{Navigationsleiste Flughäfen EDLL}} Kategorie:RG Düsseldorf“)

(Unterschied) ← Nächstältere Version | Bestätigte Version (Unterschied) | Aktuelle Version (Unterschied) | Nächstjüngere Version → (Unterschied)
Wechseln zu:Navigation, Suche
UnderCon icon.svg.pngDieser Artikel ist noch im Aufbau. Der Artikel kann daher unvollständig sein oder Fehler enthalten!


Paderborn Lippstadt Airport
ICAO / IATA EDLP / PAD
Koordinaten N51°36′51″  E008°36′59″
Höhe 213 m / 699 ft
Wetter EDLP 160620Z 16003KT 120V180 9999 FEW023 BKN044 04/03 Q1022
Pisten
Platzfrequenzen
Nur für Flugsimulationszwecke!



Informationen für Piloten und Lotsen
Pilotenbriefing

Standard Operating Procedures (SOP)

Letters of Agreement (LoAs)

Airport Charts


Vorlage:Navigationsleiste Flughäfen EDLL